Time;durP1;ratioP1;P1;durP2;ratioP2;P2;SDS_P1;SDS_P2;PMS_P1;PMS_P2;Temp;Humidity;BMP_temperature;BMP_pressure;BME280_temperature;BME280_humidity;BME280_pressure;Samples;Min_cycle;Max_cycle;Signal;HPM_P1;HPM_P2
2024/01/05 00:01:16;;;;;;;17.08;9.90;;;;;;;6.05;77.62;98918.81;4835292;29;20136;-94
2024/01/05 00:03:44;;;;;;;17.85;9.43;;;;;;;5.87;77.78;98896.66;4851221;29;20044;-93
2024/01/05 00:06:10;;;;;;;18.33;9.57;;;;;;;5.99;78.46;98922.47;4851645;29;20065;-95
2024/01/05 00:08:35;;;;;;;23.23;9.93;;;;;;;5.95;78.10;98908.00;4850197;29;20036;-94
2024/01/05 00:11:01;;;;;;;16.52;10.45;;;;;;;5.96;78.56;98912.28;4835743;29;20076;-93
2024/01/05 00:13:26;;;;;;;17.60;8.30;;;;;;;5.90;78.27;98897.22;4835895;29;20037;-95
2024/01/05 00:15:52;;;;;;;18.95;8.32;;;;;;;5.96;78.17;98906.94;4834818;29;20037;-94
2024/01/05 00:18:17;;;;;;;11.90;7.00;;;;;;;5.86;78.44;98897.72;4850461;29;20061;-93
2024/01/05 00:20:43;;;;;;;11.43;6.60;;;;;;;5.85;78.15;98905.97;4849508;29;20033;-95
2024/01/05 00:23:08;;;;;;;11.13;6.35;;;;;;;6.00;78.22;98930.25;4834906;29;20072;-95
2024/01/05 00:25:34;;;;;;;9.15;5.78;;;;;;;6.07;78.01;98928.19;4849506;29;20450;-95
2024/01/05 00:27:59;;;;;;;10.05;5.20;;;;;;;5.96;77.98;98910.41;4849593;29;20041;-94
2024/01/05 00:30:25;;;;;;;7.20;4.55;;;;;;;6.04;77.58;98901.16;4849115;29;20037;-94
2024/01/05 00:32:50;;;;;;;7.88;4.40;;;;;;;6.18;76.45;98921.06;4833923;29;20420;-94
2024/01/05 00:35:16;;;;;;;7.03;4.30;;;;;;;6.20;75.69;98905.59;4835362;29;20565;-94
2024/01/05 00:37:42;;;;;;;5.95;3.60;;;;;;;6.33;75.06;98917.78;4850136;29;20438;-94
2024/01/05 00:40:08;;;;;;;8.25;4.80;;;;;;;6.27;75.08;98911.56;4834369;29;20037;-94
2024/01/05 00:42:33;;;;;;;6.70;4.53;;;;;;;6.27;75.66;98911.56;4849980;29;20080;-95
2024/01/05 00:44:59;;;;;;;7.60;4.30;;;;;;;6.34;75.92;98924.72;4850890;29;20523;-93
2024/01/05 00:47:24;;;;;;;8.52;4.47;;;;;;;6.33;75.87;98922.31;4834957;29;20040;-94
2024/01/05 00:49:52;;;;;;;7.40;4.13;;;;;;;6.21;76.05;98920.59;4850178;29;20037;-94
2024/01/05 00:52:18;;;;;;;6.55;3.90;;;;;;;6.11;76.54;98909.78;4850836;29;20137;-95
2024/01/05 00:54:43;;;;;;;6.35;3.67;;;;;;;6.11;76.66;98909.78;4835701;29;20508;-95
2024/01/05 00:57:09;;;;;;;6.00;3.35;;;;;;;6.09;76.27;98909.22;4836088;29;20033;-94
2024/01/05 00:59:35;;;;;;;8.02;3.67;;;;;;;6.05;76.48;98903.56;4833431;29;20045;-95
2024/01/05 01:02:00;;;;;;;5.65;3.72;;;;;;;6.22;76.54;98926.72;4834067;29;20057;-93
2024/01/05 01:04:29;;;;;;;6.45;3.50;;;;;;;6.17;76.45;98919.47;4834200;29;20169;-94
2024/01/05 01:06:54;;;;;;;6.55;3.70;;;;;;;6.12;76.71;98923.94;4849258;29;20559;-94
2024/01/05 01:09:22;;;;;;;5.15;3.50;;;;;;;6.17;76.77;98930.16;4834423;29;20044;-94
2024/01/05 01:11:51;;;;;;;4.25;2.53;;;;;;;6.15;75.23;98920.78;4849252;29;20076;-93
2024/01/05 01:14:16;;;;;;;4.32;2.65;;;;;;;6.21;75.54;98930.47;4850294;29;20036;-94
2024/01/05 01:16:42;;;;;;;3.72;2.40;;;;;;;6.17;75.15;98929.38;4835970;29;20093;-93
2024/01/05 01:19:08;;;;;;;7.10;3.83;;;;;;;6.20;75.60;98953.72;4849350;29;20037;-93
2024/01/05 01:21:33;;;;;;;4.80;3.00;;;;;;;6.10;75.11;98932.25;4864598;29;20048;-93
2024/01/05 01:23:59;;;;;;;5.63;2.10;;;;;;;6.23;74.35;98936.38;4833872;29;20045;-93
2024/01/05 01:26:25;;;;;;;3.50;2.10;;;;;;;6.26;73.41;98938.53;4848715;29;20069;-94
2024/01/05 01:28:50;;;;;;;2.95;1.80;;;;;;;6.36;73.38;98941.31;4850395;29;20520;-93
2024/01/05 01:31:16;;;;;;;2.50;1.85;;;;;;;6.33;72.90;98930.31;4848621;29;20048;-94
2024/01/05 01:33:41;;;;;;;3.63;2.10;;;;;;;6.35;72.57;98938.91;4848765;29;20045;-93
2024/01/05 01:36:07;;;;;;;2.70;1.65;;;;;;;6.45;71.42;98958.56;4849074;29;20062;-93
2024/01/05 01:38:33;;;;;;;3.20;1.88;;;;;;;6.54;70.92;98961.59;4849263;29;20041;-92
2024/01/05 01:40:58;;;;;;;5.03;1.92;;;;;;;6.55;71.00;98951.69;4833517;29;20514;-92
2024/01/05 01:43:27;;;;;;;3.35;1.88;;;;;;;6.68;70.63;98970.00;4852117;29;20048;-93
2024/01/05 01:45:57;;;;;;;3.33;2.10;;;;;;;6.70;70.74;98972.41;4851897;29;20476;-93
2024/01/05 01:48:23;;;;;;;3.30;2.22;;;;;;;6.58;70.77;98956.50;4852339;29;20037;-93
2024/01/05 01:50:49;;;;;;;3.95;2.10;;;;;;;6.62;70.51;98962.97;4836687;29;20136;-92
2024/01/05 01:53:15;;;;;;;3.80;2.15;;;;;;;6.63;70.75;98969.97;4836705;29;20048;-93
2024/01/05 01:55:43;;;;;;;3.88;1.92;;;;;;;6.76;70.65;98995.50;4837973;29;20029;-93
2024/01/05 01:58:09;;;;;;;3.47;2.03;;;;;;;6.65;71.07;98975.84;4851908;29;20028;-92
2024/01/05 02:00:34;;;;;;;2.00;1.60;;;;;;;6.73;69.51;98991.47;4836859;29;20040;-92
2024/01/05 02:03:01;;;;;;;2.42;1.58;;;;;;;6.74;68.50;98982.34;4836728;29;20036;-93
2024/01/05 02:05:26;;;;;;;3.35;1.90;;;;;;;6.83;68.13;98998.78;4836378;29;20096;-93
2024/01/05 02:07:52;;;;;;;3.47;1.58;;;;;;;6.91;67.51;99002.84;4837301;29;20045;-93
2024/01/05 02:10:18;;;;;;;2.42;1.60;;;;;;;6.90;67.07;98991.34;4851451;29;20041;-94
2024/01/05 02:12:44;;;;;;;1.92;1.38;;;;;;;6.80;67.76;98975.19;4852472;29;20516;-92
2024/01/05 02:15:10;;;;;;;5.15;2.03;;;;;;;6.83;69.17;98982.72;4853189;29;20048;-92
2024/01/05 02:17:35;;;;;;;3.55;1.80;;;;;;;6.86;70.02;98995.59;4851568;29;20037;-93
2024/01/05 02:20:05;;;;;;;2.85;2.00;;;;;;;6.93;70.87;99011.44;4851906;29;20131;-93
2024/01/05 02:22:32;;;;;;;2.67;1.58;;;;;;;6.93;71.34;99020.31;4852711;29;20069;-93
2024/01/05 02:24:57;;;;;;;2.42;1.38;;;;;;;6.86;71.06;99023.16;4836658;29;20132;-93
2024/01/05 02:27:23;;;;;;;4.05;1.85;;;;;;;6.75;70.18;99007.28;4852232;29;20044;-93
2024/01/05 02:29:49;;;;;;;2.60;1.52;;;;;;;6.80;70.80;99021.47;4851517;29;20044;-91
2024/01/05 02:32:18;;;;;;;2.47;1.45;;;;;;;6.72;70.45;99011.22;4852014;29;20591;-93
2024/01/05 02:34:44;;;;;;;2.20;1.42;;;;;;;6.83;70.25;99014.84;4837973;29;20037;-93
2024/01/05 02:37:10;;;;;;;2.92;1.50;;;;;;;6.90;70.15;99028.00;4836605;29;20101;-93
2024/01/05 02:39:35;;;;;;;2.47;1.55;;;;;;;6.80;69.00;99016.13;4852276;29;20056;-93
2024/01/05 02:42:01;;;;;;;2.42;1.77;;;;;;;6.86;69.63;99019.69;4852035;29;20041;-93
2024/01/05 02:44:26;;;;;;;7.25;1.70;;;;;;;6.90;69.08;99020.00;4866821;29;20052;-93
2024/01/05 02:46:52;;;;;;;3.13;1.83;;;;;;;6.92;69.81;99023.22;4837388;29;20536;-92
2024/01/05 02:49:17;;;;;;;2.05;1.30;;;;;;;6.82;70.50;99006.00;4850277;29;20456;-92
2024/01/05 02:51:43;;;;;;;3.65;2.00;;;;;;;6.96;70.98;99035.03;4837495;29;20037;-95
2024/01/05 02:54:09;;;;;;;2.38;1.65;;;;;;;6.83;71.13;99029.03;4836370;29;20052;-93
2024/01/05 02:56:34;;;;;;;5.20;2.20;;;;;;;6.67;71.53;99013.88;4835971;29;20040;-93
2024/01/05 02:59:01;;;;;;;2.83;1.42;;;;;;;6.78;71.69;99036.19;4836979;29;20101;-92
2024/01/05 03:01:27;;;;;;;2.50;1.55;;;;;;;6.62;71.17;99019.97;4836543;29;20041;-92
2024/01/05 03:03:52;;;;;;;2.00;1.40;;;;;;;6.48;72.01;99008.84;4835307;29;20555;-94
2024/01/05 03:06:22;;;;;;;1.83;1.33;;;;;;;6.60;72.29;99040.00;4852955;29;20097;-93
2024/01/05 03:08:48;;;;;;;4.30;2.28;;;;;;;6.29;73.50;99012.91;4835866;29;20047;-94
2024/01/05 03:11:14;;;;;;;3.55;2.08;;;;;;;6.40;73.28;99032.56;4836229;29;20100;-93
2024/01/05 03:13:39;;;;;;;8.95;2.30;;;;;;;6.25;73.32;99009.94;4851434;29;20049;-93
2024/01/05 03:16:05;;;;;;;2.30;1.42;;;;;;;6.33;72.91;99034.59;4850821;29;20037;-93
2024/01/05 03:18:31;;;;;;;2.50;1.88;;;;;;;6.35;73.47;99036.00;4836015;29;20135;-93
2024/01/05 03:20:56;;;;;;;3.78;2.10;;;;;;;6.10;73.15;99011.59;4836680;29;20468;-93
2024/01/05 03:23:25;;;;;;;5.40;2.25;;;;;;;6.22;71.82;99028.31;4836120;29;20135;-94
2024/01/05 03:25:51;;;;;;;3.33;2.10;;;;;;;6.15;72.26;99035.72;4851413;29;20071;-92
2024/01/05 03:28:17;;;;;;;4.32;2.70;;;;;;;6.05;72.71;99039.88;4835082;29;20124;-91
2024/01/05 03:34:11;;;;;;;7.13;2.28;;;;;;;6.16;73.76;99064.06;4881617;29;20188;-93
2024/01/05 03:36:37;;;;;;;3.20;2.28;;;;;;;6.12;73.77;99065.59;4850396;29;20037;-93
2024/01/05 03:39:05;;;;;;;2.92;1.80;;;;;;;5.95;73.62;99044.28;4835773;29;20097;-93
2024/01/05 03:41:30;;;;;;;2.72;2.00;;;;;;;6.06;73.67;99057.53;4835735;29;20029;-93
2024/01/05 03:43:56;;;;;;;3.20;1.95;;;;;;;6.04;73.29;99050.81;4836454;29;20037;-93
2024/01/05 03:46:24;;;;;;;3.05;1.88;;;;;;;6.02;73.33;99050.25;4850105;29;20116;-93
2024/01/05 03:48:51;;;;;;;4.10;2.08;;;;;;;6.12;73.02;99061.09;4865249;29;20104;-94
2024/01/05 03:51:16;;;;;;;2.42;1.73;;;;;;;6.13;73.37;99070.72;4851633;29;20044;-93
2024/01/05 03:53:42;;;;;;;2.83;2.10;;;;;;;6.03;73.62;99067.91;4851388;29;20066;-94
2024/01/05 03:56:09;;;;;;;5.32;2.17;;;;;;;6.08;73.87;99078.69;4851229;29;20041;-93
2024/01/05 03:58:35;;;;;;;5.03;2.50;;;;;;;6.00;73.82;99068.41;4851513;29;20411;-93
2024/01/05 04:01:01;;;;;;;4.88;2.70;;;;;;;6.05;73.78;99079.16;4835477;29;20036;-94
2024/01/05 04:03:26;;;;;;;3.72;2.30;;;;;;;6.03;73.69;99084.75;4835929;29;20059;-92
2024/01/05 04:05:52;;;;;;;4.28;2.13;;;;;;;6.00;73.90;99082.56;4849389;29;20522;-91
2024/01/05 04:08:18;;;;;;;4.75;2.30;;;;;;;6.01;74.14;99102.88;4850232;29;20047;-94
2024/01/05 04:10:43;;;;;;;4.30;2.72;;;;;;;5.98;74.07;99124.75;4850765;29;20495;-94
2024/01/05 04:13:09;;;;;;;4.07;2.80;;;;;;;5.77;74.68;99104.09;4834995;29;20041;-95
2024/01/05 04:15:35;;;;;;;6.68;3.38;;;;;;;5.72;74.58;99112.84;4850300;29;20083;-94
2024/01/05 04:18:01;;;;;;;4.80;3.58;;;;;;;5.78;74.52;99143.91;4835570;29;20043;-92
2024/01/05 04:20:26;;;;;;;6.68;3.85;;;;;;;5.75;74.41;99144.41;4835179;29;20033;-91
2024/01/05 04:22:52;;;;;;;5.38;3.50;;;;;;;5.62;74.49;99132.19;4835623;29;20029;-93
2024/01/05 04:25:18;;;;;;;4.68;3.25;;;;;;;5.64;73.76;99151.47;4850563;29;20082;-94
2024/01/05 04:27:43;;;;;;;4.93;3.20;;;;;;;5.70;73.93;99159.53;4836416;29;20097;-92
2024/01/05 04:30:09;;;;;;;6.18;3.33;;;;;;;5.68;74.00;99167.78;4852508;29;20052;-93
2024/01/05 04:32:35;;;;;;;5.75;3.30;;;;;;;5.63;73.87;99168.53;4851366;29;20448;-93
2024/01/05 04:35:01;;;;;;;7.20;3.50;;;;;;;5.64;74.11;99163.97;4845786;29;20419;-92
2024/01/05 04:37:26;;;;;;;6.35;2.95;;;;;;;5.67;74.57;99183.00;4853855;29;20127;-93
2024/01/05 04:39:52;;;;;;;4.63;2.95;;;;;;;5.52;74.72;99157.88;4853200;29;20037;-92
2024/01/05 04:42:18;;;;;;;5.03;3.03;;;;;;;5.55;74.38;99163.56;4854253;29;20041;-93
2024/01/05 04:44:43;;;;;;;5.10;2.30;;;;;;;5.57;74.68;99161.47;4852818;29;20055;-95
2024/01/05 04:47:09;;;;;;;6.45;2.90;;;;;;;5.56;74.22;99169.72;4853607;29;20064;-93
2024/01/05 04:49:34;;;;;;;4.40;2.60;;;;;;;5.50;75.03;99163.50;4853752;29;20464;-95
2024/01/05 04:52:19;;;;;;;4.18;2.60;;;;;;;5.61;74.44;99177.84;4867426;29;20041;-94
2024/01/05 04:54:44;;;;;;;6.03;2.95;;;;;;;5.71;74.42;99193.19;4868945;29;20491;-94
2024/01/05 04:57:10;;;;;;;5.25;2.72;;;;;;;5.64;74.19;99178.16;4852982;29;20037;-93
2024/01/05 04:59:36;;;;;;;3.65;2.63;;;;;;;5.61;73.95;99177.84;4852311;29;20160;-94
2024/01/05 05:02:10;;;;;;;6.32;2.83;;;;;;;5.56;74.07;99181.22;4852434;29;20033;-93
2024/01/05 05:04:35;;;;;;;4.35;2.83;;;;;;;5.57;74.68;99187.38;4854448;29;20047;-93
2024/01/05 05:07:01;;;;;;;6.07;3.90;;;;;;;5.44;74.83;99183.94;4844610;29;20030;-93
2024/01/05 05:09:27;;;;;;;5.82;4.40;;;;;;;5.52;75.31;99206.78;4850937;29;20043;-92
2024/01/05 05:12:01;;;;;;;5.43;3.60;;;;;;;5.40;75.38;99184.66;4852771;29;20033;-93
2024/01/05 05:14:27;;;;;;;4.70;3.20;;;;;;;5.44;75.15;99204.50;4843748;29;20047;-92
2024/01/05 05:16:54;;;;;;;48.13;39.20;;;;;;;5.37;75.86;99214.50;4839031;29;20037;-93
2024/01/05 05:19:20;;;;;;;8.98;6.60;;;;;;;5.23;76.00;99206.78;4840762;29;20072;-90
2024/01/05 05:21:45;;;;;;;10.13;5.20;;;;;;;5.37;75.92;99235.84;4846288;29;20032;-93
2024/01/05 05:24:11;;;;;;;9.00;4.95;;;;;;;5.11;76.07;99213.22;4855861;29;20028;-92
2024/01/05 05:26:37;;;;;;;10.18;5.63;;;;;;;5.09;76.58;99224.13;4838397;29;20072;-93
2024/01/05 05:29:02;;;;;;;10.63;5.53;;;;;;;5.15;76.47;99227.69;4826200;29;20084;-92
2024/01/05 05:31:30;;;;;;;9.88;5.53;;;;;;;5.04;76.60;99213.31;4838017;29;20056;-91
2024/01/05 05:33:56;;;;;;;10.25;5.82;;;;;;;5.10;76.28;99214.25;4837082;29;20045;-91
2024/01/05 05:36:24;;;;;;;9.80;5.60;;;;;;;5.17;76.69;99245.09;4838923;29;20033;-94
2024/01/05 05:38:50;;;;;;;8.05;5.43;;;;;;;4.93;76.66;99228.31;4840228;29;20041;-92
2024/01/05 05:41:21;;;;;;;9.23;6.35;;;;;;;4.82;76.54;99223.81;4842719;29;20037;-94
2024/01/05 05:43:47;;;;;;;10.77;5.47;;;;;;;5.00;76.46;99250.34;4844569;29;20037;-91
2024/01/05 05:46:18;;;;;;;28.15;21.80;;;;;;;4.82;76.94;99243.31;4844978;29;20040;-93
2024/01/05 05:49:00;;;;;;;16.13;11.25;;;;;;;4.81;76.60;99246.19;4856564;29;20534;-95
2024/01/05 05:51:31;;;;;;;16.10;8.77;;;;;;;5.01;76.56;99273.31;4876657;29;20041;-93
2024/01/05 05:53:56;;;;;;;12.85;7.80;;;;;;;4.87;76.93;99253.25;4872763;29;20281;-93
2024/01/05 05:56:22;;;;;;;13.18;10.13;;;;;;;4.84;77.63;99259.88;4857690;29;20059;-93
2024/01/05 05:58:49;;;;;;;19.23;11.73;;;;;;;4.80;77.24;99258.72;4873069;29;20036;-92
2024/01/05 06:01:42;;;;;;;14.40;8.57;;;;;;;4.66;76.67;99244.81;4857281;29;20165;-93
2024/01/05 06:04:07;;;;;;;12.52;7.47;;;;;;;4.80;77.08;99273.94;4876046;29;20072;-92
2024/01/05 06:07:12;;;;;;;14.93;10.80;;;;;;;4.52;77.59;99251.41;4866631;29;20044;-95
2024/01/05 06:10:30;;;;;;;;;;;;;;;;;;;;;
2024/01/05 06:13:06;;;;;;;13.07;7.85;;;;;;;4.65;77.73;99271.72;4801702;29;20073;-93
2024/01/05 06:15:41;;;;;;;12.80;8.32;;;;;;;4.64;77.15;99270.91;4840890;29;20028;-94
2024/01/05 06:18:20;;;;;;;12.32;7.85;;;;;;;4.66;76.37;99271.47;4818437;29;20093;-95
2024/01/05 06:20:48;;;;;;;12.88;7.70;;;;;;;4.92;76.49;99300.56;4834660;29;20033;-93
2024/01/05 06:23:14;;;;;;;13.00;7.40;;;;;;;4.87;76.27;99287.94;4834909;29;20041;-95
2024/01/05 06:25:54;;;;;;;11.95;7.88;;;;;;;4.89;75.67;99269.84;4819211;29;20053;-94
2024/01/05 06:28:43;;;;;;;11.90;7.05;;;;;;;4.88;75.64;99256.72;4859994;29;20534;-95
2024/01/05 06:42:16;;;;;;;10.70;7.47;;;;;;;5.15;76.04;99321.13;4668633;30;20050;-95
2024/01/05 06:50:38;;;;;;;23.02;12.50;;;;;;;5.22;75.13;99309.25;4891051;23;20112;-91
2024/01/05 06:53:24;;;;;;;18.42;10.90;;;;;;;5.24;75.15;99301.00;4861738;29;20040;-94
2024/01/05 06:56:21;;;;;;;;;;;;;;;;;;;;;
2024/01/05 07:01:57;;;;;;;49.20;29.15;;;;;;;5.74;73.44;99304.94;5316545;23;20020;-95
2024/01/05 07:04:23;;;;;;;12.55;9.20;;;;;;;5.75;73.10;99301.19;4856227;29;20049;-93
2024/01/05 07:45:32;;;;;;;22.02;14.20;;;;;;;7.34;70.65;99293.81;4902820;29;20061;-95
2024/01/05 07:47:58;;;;;;;29.48;15.95;;;;;;;7.58;70.34;99326.53;5022649;23;20216;-93
2024/01/05 07:50:53;;;;;;;22.45;14.85;;;;;;;7.69;70.49;99341.66;4992794;24;20102;-96
2024/01/05 07:54:09;;;;;;;23.52;14.30;;;;;;;7.66;69.93;99314.56;4844415;29;20050;-96
2024/01/05 07:56:49;;;;;;;19.15;13.23;;;;;;;7.81;69.36;99322.78;4823062;29;20056;-94
2024/01/05 07:59:19;;;;;;;21.13;12.50;;;;;;;8.09;68.47;99331.63;4850671;29;20050;-95
2024/01/05 08:01:51;;;;;;;17.05;11.70;;;;;;;8.21;67.49;99337.66;4845936;29;20125;-94
2024/01/05 08:04:20;;;;;;;16.30;11.30;;;;;;;8.30;66.10;99344.19;4845300;29;20067;-94
2024/01/05 08:06:52;;;;;;;15.32;11.13;;;;;;;8.32;65.83;99343.91;4845992;29;20082;-94
2024/01/05 08:09:28;;;;;;;19.58;12.30;;;;;;;8.65;66.16;99368.94;4834057;29;20048;-94
2024/01/05 08:11:58;;;;;;;17.40;10.65;;;;;;;8.59;65.52;99349.31;4850023;29;20049;-95
2024/01/05 08:29:02;;;;;;;22.40;13.15;;;;;;;9.21;64.49;99369.34;4879916;29;20057;-92
2024/01/05 08:31:30;;;;;;;21.30;12.60;;;;;;;9.38;64.23;99376.41;4853389;29;20044;-92
2024/01/05 08:33:56;;;;;;;24.10;12.10;;;;;;;9.55;63.93;99382.44;4842075;29;20041;-93
2024/01/05 08:36:39;;;;;;;18.42;12.80;;;;;;;9.59;63.65;99378.16;4820975;29;20032;-93
2024/01/05 08:39:13;;;;;;;20.80;12.32;;;;;;;9.62;63.22;99369.56;4825347;29;20041;-95
2024/01/05 09:31:35;;;;;;;9.50;4.07;;;;;;;11.35;54.17;99347.66;4873937;29;20065;-93
2024/01/05 09:34:00;;;;;;;12.85;5.80;;;;;;;11.55;53.45;99360.28;4844348;29;20098;-94
2024/01/05 09:36:26;;;;;;;10.20;3.95;;;;;;;11.46;53.00;99341.16;4855465;29;20040;-91
2024/01/05 09:38:51;;;;;;;10.40;5.60;;;;;;;11.64;52.61;99355.91;4853877;29;20516;-91
2024/01/05 09:41:17;;;;;;;7.28;3.10;;;;;;;11.75;50.60;99335.94;4854251;29;20047;-91
2024/01/05 09:43:43;;;;;;;7.32;2.80;;;;;;;11.87;51.28;99332.88;4854146;29;20045;-92
2024/01/05 09:46:09;;;;;;;7.00;3.13;;;;;;;12.04;51.39;99349.56;4850822;29;20079;-93
2024/01/05 09:48:35;;;;;;;6.05;2.67;;;;;;;12.10;50.22;99343.06;4851583;29;20037;-93
2024/01/05 09:51:01;;;;;;;4.90;2.97;;;;;;;12.28;48.63;99341.56;4845594;29;20037;-94
2024/01/05 09:53:42;;;;;;;4.90;3.15;;;;;;;12.43;49.90;99358.75;4841696;29;20040;-92
2024/01/05 09:56:07;;;;;;;4.70;2.30;;;;;;;12.52;47.27;99340.88;4838984;29;20066;-93
2024/01/05 09:58:35;;;;;;;6.60;2.38;;;;;;;12.70;46.49;99358.28;4818919;29;20042;-92
2024/01/05 10:01:04;;;;;;;5.03;2.65;;;;;;;12.69;46.09;99332.38;4845937;29;20036;-94
2024/01/05 10:03:33;;;;;;;4.82;2.15;;;;;;;12.81;43.80;99329.31;4857075;29;20036;-92
2024/01/05 10:05:59;;;;;;;10.32;1.92;;;;;;;12.92;44.06;99331.59;4854976;29;20037;-92
2024/01/05 10:08:25;;;;;;;4.57;1.33;;;;;;;12.94;42.89;99317.81;4854900;29;20048;-92
2024/01/05 10:11:02;;;;;;;2.35;1.33;;;;;;;13.04;43.17;99320.41;4853720;29;20119;-90
2024/01/05 10:13:28;;;;;;;2.22;1.50;;;;;;;13.19;42.05;99332.97;4868732;29;20037;-91
2024/01/05 10:16:02;;;;;;;6.00;2.70;;;;;;;13.17;43.38;99307.31;4839494;29;20044;-93
2024/01/05 10:18:29;;;;;;;5.25;2.30;;;;;;;13.19;42.70;99302.44;4834037;29;20072;-91
2024/01/05 10:20:57;;;;;;;2.17;1.40;;;;;;;13.31;40.54;99302.88;4843927;29;20419;-90
2024/01/05 10:23:23;;;;;;;4.80;2.17;;;;;;;13.45;40.86;99306.47;4851326;29;20420;-90
2024/01/05 10:38:20;;;;;;;6.80;1.42;;;;;;;13.69;41.95;99300.22;4915705;29;20178;-96
2024/01/05 10:40:45;;;;;;;4.15;2.10;;;;;;;13.58;41.86;99277.13;4938293;23;20075;-90
2024/01/05 10:43:17;;;;;;;1.70;1.10;;;;;;;13.63;40.13;99279.75;4829043;29;20053;-90
2024/01/05 10:45:42;;;;;;;2.88;1.15;;;;;;;13.77;39.41;99277.13;4845480;29;20128;-92
2024/01/05 10:50:47;;;;;;;5.93;2.10;;;;;;;13.89;41.68;99270.19;5242078;23;20061;-94
2024/01/05 10:59:00;;;;;;;;;;;;;;;;;;;;;
2024/01/05 11:02:20;;;;;;;9.52;1.50;;;;;;;14.01;39.63;99275.16;4894934;29;20072;-95
2024/01/05 11:05:10;;;;;;;3.22;1.33;;;;;;;14.01;37.63;99253.50;4854179;29;20124;-94
2024/01/05 11:08:55;;;;;;;;;;;;;;;;;;;;;
2024/01/05 11:11:35;;;;;;;6.70;1.90;;;;;;;14.12;35.51;99240.63;4821980;29;20073;-92
2024/01/05 11:14:25;;;;;;;7.55;1.70;;;;;;;14.25;36.08;99247.16;4796371;29;20043;-94
2024/01/05 11:17:06;;;;;;;0.93;0.50;;;;;;;14.42;34.39;99254.75;4844343;29;20086;-93
2024/01/05 11:20:07;;;;;;;;;;;;;;;;;;;;;
2024/01/05 11:22:55;;;;;;;5.72;1.00;;;;;;;14.39;34.97;99230.97;4867408;29;20136;-95
2024/01/05 11:39:47;;;;;;;4.30;1.13;;;;;;;14.45;34.58;99240.63;4757508;30;20042;-93
2024/01/05 11:42:27;;;;;;;3.80;0.80;;;;;;;14.42;34.30;99227.66;4769572;30;20134;-93
2024/01/05 11:48:38;;;;;;;2.42;0.90;;;;;;;14.55;33.68;99248.56;4775939;29;20043;-94
2024/01/05 11:54:38;;;;;;;2.53;1.48;;;;;;;14.54;34.04;99236.13;4823565;29;20048;-94
2024/01/05 12:00:59;;;;;;;2.13;1.25;;;;;;;14.64;34.33;99248.72;4826373;29;20057;-95
2024/01/05 12:18:18;;;;;;;1.85;1.10;;;;;;;14.38;35.24;99219.34;4895953;29;20105;-95
2024/01/05 12:26:51;;;;;;;8.35;1.80;;;;;;;14.43;35.51;99218.44;5372533;23;20047;-93
2024/01/05 12:29:48;;;;;;;24.75;2.80;;;;;;;14.40;36.33;99219.03;4824287;29;20175;-93
2024/01/05 12:32:24;;;;;;;8.88;1.75;;;;;;;14.45;35.40;99230.59;4794089;29;20533;-95
2024/01/05 12:34:53;;;;;;;10.75;1.73;;;;;;;14.45;34.64;99224.38;4865092;29;20044;-93
2024/01/05 12:37:18;;;;;;;9.48;2.30;;;;;;;14.44;37.35;99222.75;4866565;29;20468;-93
2024/01/05 12:39:47;;;;;;;6.25;2.15;;;;;;;14.51;37.89;99228.59;4865256;29;20111;-92
2024/01/05 12:42:12;;;;;;;8.25;2.53;;;;;;;14.45;38.23;99225.16;4865632;29;20131;-93
2024/01/05 12:45:41;;;;;;;8.32;2.03;;;;;;;14.50;36.84;99238.59;4856381;29;20068;-94
2024/01/05 12:48:23;;;;;;;5.95;2.20;;;;;;;14.50;36.63;99226.97;4756636;30;20120;-96
2024/01/05 12:54:20;;;;;;;25.48;5.57;;;;;;;14.62;39.27;99223.81;4791494;29;20033;-93
2024/01/05 12:56:55;;;;;;;;;;;;;;;;;;;;;
2024/01/05 12:59:32;;;;;;;22.75;6.28;;;;;;;14.65;40.19;99228.63;4830390;29;20117;-92
2024/01/05 13:02:05;;;;;;;18.65;5.05;;;;;;;14.69;40.01;99227.75;4828077;29;20044;-93
2024/01/05 13:04:34;;;;;;;24.23;6.43;;;;;;;14.65;41.86;99228.63;4815433;29;20045;-93
2024/01/05 13:07:36;;;;;;;11.57;2.63;;;;;;;14.83;38.93;99244.00;4824338;29;20083;-96
2024/01/05 13:10:26;;;;;;;11.57;3.00;;;;;;;14.78;40.33;99217.03;4837169;29;20052;-94
2024/01/05 13:13:01;;;;;;;17.00;3.40;;;;;;;14.77;38.51;99218.09;4816592;29;20045;-94
2024/01/05 13:18:48;;;;;;;14.45;3.78;;;;;;;14.87;37.84;99236.91;4840223;29;20069;-96
2024/01/05 13:21:26;;;;;;;10.82;3.70;;;;;;;14.88;36.87;99234.97;4841910;29;20045;-95
2024/01/05 13:24:25;;;;;;;11.15;4.97;;;;;;;14.84;37.57;99239.41;4820588;29;20042;-95
2024/01/05 13:27:22;;;;;;;22.45;4.50;;;;;;;14.69;38.87;99218.81;4828058;29;20046;-96
2024/01/05 13:39:10;;;;;;;12.32;4.35;;;;;;;14.46;41.74;99239.50;4813863;29;20049;-95
2024/01/05 13:41:39;;;;;;;20.17;5.45;;;;;;;14.37;41.90;99241.31;4782721;29;20035;-94
2024/01/05 13:44:22;;;;;;;11.95;4.25;;;;;;;14.34;40.76;99246.22;4766925;29;20062;-93
2024/01/05 13:59:51;;;;;;;7.03;2.90;;;;;;;14.02;39.44;99268.63;4755981;29;20040;-95
2024/01/05 14:02:19;;;;;;;13.73;3.15;;;;;;;13.90;40.64;99257.44;4799690;29;20172;-94
2024/01/05 14:05:26;;;;;;;;;;;;;;;;;;;;;
2024/01/05 14:10:50;;;;;;;12.85;2.78;;;;;;;13.86;41.95;99253.72;4912205;28;20044;-96
2024/01/05 14:13:30;;;;;;;8.40;2.80;;;;;;;13.86;43.72;99257.25;4875725;29;20041;-95
2024/01/05 14:16:28;;;;;;;29.42;12.05;;;;;;;13.80;45.16;99263.84;4878114;29;20347;-91
2024/01/05 14:18:56;;;;;;;33.63;11.77;;;;;;;13.57;46.78;99245.75;4875403;29;20119;-94
2024/01/05 14:31:07;;;;;;;36.08;15.68;;;;;;;13.04;48.10;99263.66;4849207;29;20132;-94
2024/01/05 14:33:33;;;;;;;20.60;9.20;;;;;;;12.92;47.82;99258.63;4817490;29;20037;-95
2024/01/05 14:36:03;;;;;;;25.05;11.45;;;;;;;12.94;48.90;99283.47;4817077;29;20445;-95
2024/01/05 14:38:39;;;;;;;23.08;10.85;;;;;;;12.81;48.59;99272.56;4830200;29;20044;-94
2024/01/05 14:41:11;;;;;;;42.50;32.13;;;;;;;12.69;50.10;99272.94;4817247;29;20041;-96
2024/01/05 14:43:39;;;;;;;34.97;21.27;;;;;;;12.54;50.73;99274.69;4832331;29;20068;-93
2024/01/05 14:46:07;;;;;;;106.47;46.17;;;;;;;12.43;50.69;99273.19;4831630;29;20556;-95
2024/01/05 14:48:33;;;;;;;101.28;49.78;;;;;;;12.43;50.76;99283.16;4833289;29;20045;-95
2024/01/05 14:54:43;;;;;;;53.77;27.87;;;;;;;12.30;52.64;99301.59;4849737;29;20060;-95
2024/01/05 14:57:20;;;;;;;43.65;19.75;;;;;;;12.12;52.56;99292.31;4833267;29;20085;-94
2024/01/05 14:59:49;;;;;;;47.63;25.85;;;;;;;12.11;52.15;99300.66;4821482;29;20041;-96
2024/01/05 15:02:52;;;;;;;51.92;21.65;;;;;;;11.86;52.39;99275.44;4835089;29;20105;-95
2024/01/05 15:08:07;;;;;;;41.17;20.23;;;;;;;11.67;53.28;99280.66;4872493;29;20048;-95
2024/01/05 15:10:39;;;;;;;34.35;15.23;;;;;;;11.68;53.06;99289.56;4859661;29;20129;-94
2024/01/05 15:13:17;;;;;;;40.38;16.83;;;;;;;11.58;54.39;99281.50;4859849;29;20033;-95
2024/01/05 15:15:42;;;;;;;27.63;16.48;;;;;;;11.52;54.21;99286.94;4877197;29;20052;-94
2024/01/05 15:18:19;;;;;;;28.13;10.90;;;;;;;11.52;54.14;99283.44;4868422;29;20024;-95
2024/01/05 15:20:47;;;;;;;35.65;17.48;;;;;;;11.56;55.29;99298.00;4856713;29;20036;-94
2024/01/05 15:23:13;;;;;;;27.80;12.55;;;;;;;11.52;55.64;99297.72;4855729;29;20033;-92
2024/01/05 15:25:41;;;;;;;21.38;9.95;;;;;;;11.40;56.25;99293.75;4860487;29;20043;-93
2024/01/05 15:28:17;;;;;;;33.75;11.35;;;;;;;11.22;55.81;99281.66;4877902;29;20129;-96
2024/01/05 15:31:15;;;;;;;33.60;13.68;;;;;;;11.22;56.22;99287.84;4878824;29;20423;-96
2024/01/05 15:33:42;;;;;;;32.42;14.13;;;;;;;11.18;55.77;99302.97;4882376;29;20040;-96
2024/01/05 15:36:10;;;;;;;27.55;11.57;;;;;;;11.19;56.60;99301.91;4857715;29;20070;-95
2024/01/05 15:38:58;;;;;;;27.77;12.75;;;;;;;10.99;57.21;99301.94;4824849;29;20061;-95
2024/01/05 15:41:27;;;;;;;165.73;82.65;;;;;;;10.93;55.04;99301.13;4818113;29;20058;-95
2024/01/05 15:43:59;;;;;;;61.63;32.40;;;;;;;11.04;56.06;99315.38;4818410;29;20562;-96
2024/01/05 15:46:42;;;;;;;32.03;16.85;;;;;;;10.98;56.56;99311.91;4813967;29;20038;-96
2024/01/05 15:49:26;;;;;;;33.40;14.50;;;;;;;11.00;56.76;99319.72;4811167;29;20506;-93
2024/01/05 15:51:52;;;;;;;26.23;14.40;;;;;;;10.83;56.83;99296.59;4794100;29;20050;-91
2024/01/05 15:54:18;;;;;;;27.75;15.40;;;;;;;10.90;57.34;99317.84;4797675;29;20172;-93
2024/01/05 15:56:51;;;;;;;25.15;16.70;;;;;;;10.79;57.86;99319.75;4796629;29;20125;-92
2024/01/05 15:59:17;;;;;;;33.08;16.90;;;;;;;10.67;58.55;99313.84;4801884;29;20046;-96
2024/01/05 16:02:03;;;;;;;33.60;17.58;;;;;;;10.60;59.10;99315.97;4800870;29;20057;-94